createdAt,value
2022-09-01T00:00:04.921Z,102244.78
2022-09-01T00:02:31.425Z,102232.72
2022-09-01T00:04:58.784Z,102235.25
2022-09-01T00:07:27.271Z,102229.69
2022-09-01T00:09:53.809Z,102228.00
2022-09-01T00:12:22.699Z,102231.25
2022-09-01T00:14:49.777Z,102238.59
2022-09-01T00:17:16.328Z,102239.44
2022-09-01T00:19:42.756Z,102220.69
2022-09-01T00:22:09.284Z,102229.81
2022-09-01T00:24:36.274Z,102240.53
2022-09-01T00:27:03.306Z,102232.63
2022-09-01T00:29:33.399Z,102234.44
2022-09-01T00:31:59.957Z,102214.25
2022-09-01T00:34:26.437Z,102228.00
2022-09-01T00:36:52.910Z,102205.84
2022-09-01T00:39:19.400Z,102231.66
2022-09-01T00:41:47.258Z,102217.19
2022-09-01T00:44:18.976Z,102225.72
2022-09-01T00:46:52.355Z,102232.06
2022-09-01T00:49:35.232Z,102229.50
2022-09-01T00:52:20.629Z,102209.03
2022-09-01T00:54:58.168Z,102225.72
2022-09-01T00:57:25.454Z,102220.00
2022-09-01T01:00:14.811Z,102198.94
2022-09-01T01:02:42.492Z,102226.19
2022-09-01T01:05:12.601Z,102218.41
2022-09-01T01:07:45.871Z,102226.69
2022-09-01T01:10:17.044Z,102213.31
2022-09-01T01:12:44.803Z,102214.16
2022-09-01T01:15:13.288Z,102225.72
2022-09-01T01:17:40.632Z,102228.75
2022-09-01T01:20:28.269Z,102203.44
2022-09-01T01:23:12.483Z,102224.78
2022-09-01T01:25:49.439Z,102218.06
2022-09-01T01:28:18.597Z,102221.84
2022-09-01T01:30:52.384Z,102223.91
2022-09-01T01:33:25.586Z,102216.50
2022-09-01T01:35:55.292Z,102216.59
2022-09-01T01:38:22.940Z,102221.34
2022-09-01T01:40:51.663Z,102231.09
2022-09-01T01:43:23.035Z,102230.47
2022-09-01T01:45:52.173Z,102233.25
2022-09-01T01:48:23.906Z,102235.34
2022-09-01T01:50:52.606Z,102209.66
2022-09-01T01:53:19.544Z,102217.53
2022-09-01T01:55:50.302Z,102228.75
2022-09-01T01:58:19.892Z,102220.00
2022-09-01T02:00:51.704Z,102210.25
2022-09-01T02:03:21.823Z,102231.09
2022-09-01T02:05:50.580Z,102218.91
2022-09-01T02:08:21.001Z,102215.38
2022-09-01T02:10:51.043Z,102195.59
2022-09-01T02:13:20.914Z,102227.28
2022-09-01T02:15:53.649Z,102227.38
2022-09-01T02:18:31.169Z,102222.16
2022-09-01T02:20:58.917Z,102226.19
2022-09-01T02:23:25.628Z,102219.56
2022-09-01T02:26:15.263Z,102209.59
2022-09-01T02:28:42.635Z,102224.06
2022-09-01T02:31:11.229Z,102235.41
2022-09-01T02:33:39.861Z,102213.00
2022-09-01T02:36:09.951Z,102213.88
2022-09-01T02:38:36.722Z,102215.81
2022-09-01T02:41:05.511Z,102213.13
2022-09-01T02:43:32.063Z,102218.59
2022-09-01T02:46:00.758Z,102203.84
2022-09-01T02:48:35.734Z,102188.53
2022-09-01T02:51:09.018Z,102221.25
2022-09-01T02:53:36.549Z,102217.84
2022-09-01T02:56:09.461Z,102200.81
2022-09-01T02:58:45.769Z,102208.84
2022-09-01T03:01:17.176Z,102206.03
2022-09-01T03:03:43.827Z,102218.19
2022-09-01T03:06:11.233Z,102211.63
2022-09-01T03:08:39.568Z,102222.09
2022-09-01T03:11:13.197Z,102226.59
2022-09-01T03:13:41.374Z,102226.69
2022-09-01T03:16:08.793Z,102218.28
2022-09-01T03:18:35.427Z,102190.22
2022-09-01T03:21:02.461Z,102193.63
2022-09-01T03:23:31.380Z,102220.22
2022-09-01T03:25:58.107Z,102227.50
2022-09-01T03:28:26.995Z,102225.78
2022-09-01T03:30:56.847Z,102211.91
2022-09-01T03:33:25.900Z,102226.00
2022-09-01T03:35:53.375Z,102216.38
2022-09-01T03:38:24.554Z,102225.28
2022-09-01T03:40:58.985Z,102205.19
2022-09-01T03:43:27.597Z,102173.63
2022-09-01T03:46:01.815Z,102193.25
2022-09-01T03:48:30.031Z,102200.91
2022-09-01T03:51:03.013Z,102188.88
2022-09-01T03:53:34.203Z,102212.00
2022-09-01T03:56:01.603Z,102199.31
2022-09-01T03:58:28.225Z,102201.28
2022-09-01T04:00:58.364Z,102213.94
2022-09-01T04:03:29.033Z,102207.75
2022-09-01T04:05:59.563Z,102199.47
2022-09-01T04:08:32.592Z,102211.38
2022-09-01T04:11:05.463Z,102177.66
2022-09-01T04:13:35.866Z,102209.56
2022-09-01T04:16:02.816Z,102213.38
2022-09-01T04:18:30.551Z,102219.41
2022-09-01T04:20:59.616Z,102208.94
2022-09-01T04:23:33.521Z,102207.59
2022-09-01T04:26:09.991Z,102211.13
2022-09-01T04:28:48.262Z,102211.97
2022-09-01T04:31:21.156Z,102201.94
2022-09-01T04:33:52.644Z,102223.75
2022-09-01T04:36:27.452Z,102211.34
2022-09-01T04:39:00.618Z,102215.84
2022-09-01T04:41:31.871Z,102208.88
2022-09-01T04:44:02.389Z,102208.88
2022-09-01T04:46:31.237Z,102190.13
2022-09-01T04:48:58.011Z,102183.41
2022-09-01T04:51:27.928Z,102216.06
2022-09-01T04:53:57.679Z,102195.59
2022-09-01T04:56:26.658Z,102212.41
2022-09-01T04:58:56.447Z,102217.88
2022-09-01T05:01:27.500Z,102225.78
2022-09-01T05:04:01.323Z,102179.63
2022-09-01T05:06:29.869Z,102221.19
2022-09-01T05:08:57.722Z,102207.63
2022-09-01T05:11:24.186Z,102208.16
2022-09-01T05:13:56.088Z,102201.69
2022-09-01T05:16:25.427Z,102180.75
2022-09-01T05:18:55.748Z,102212.81
2022-09-01T05:21:28.219Z,102194.03
2022-09-01T05:23:55.312Z,102200.88
2022-09-01T05:26:26.990Z,102226.13
2022-09-01T05:28:57.053Z,102228.59
2022-09-01T05:31:25.730Z,102234.56
2022-09-01T05:33:52.145Z,102199.84
2022-09-01T05:36:21.488Z,102236.44
2022-09-01T05:38:49.142Z,102233.50
2022-09-01T05:41:17.594Z,102232.19
2022-09-01T05:43:48.214Z,102215.50
2022-09-01T05:46:19.030Z,102219.22
2022-09-01T05:48:47.196Z,102212.53
2022-09-01T05:51:42.617Z,102229.84
2022-09-01T05:54:08.056Z,102241.19
2022-09-01T05:56:43.299Z,102242.66
2022-09-01T05:59:26.866Z,102216.00
2022-09-01T06:01:54.787Z,102239.59
2022-09-01T06:04:22.962Z,102236.94
2022-09-01T06:07:07.847Z,102236.31
2022-09-01T06:09:40.835Z,102242.28
2022-09-01T06:12:17.496Z,102236.88
2022-09-01T06:14:46.313Z,102228.34
2022-09-01T06:17:16.382Z,102234.16
2022-09-01T06:19:43.776Z,102240.47
2022-09-01T06:22:10.658Z,102225.94
2022-09-01T06:24:40.056Z,102241.34
2022-09-01T06:27:09.868Z,102241.28
2022-09-01T06:29:39.989Z,102245.19
2022-09-01T06:32:12.697Z,102236.47
2022-09-01T06:34:44.883Z,102218.66
2022-09-01T06:37:13.235Z,102243.97
2022-09-01T06:39:39.755Z,102245.78
2022-09-01T06:42:06.714Z,102244.84
2022-09-01T06:44:33.540Z,102227.88
2022-09-01T06:47:00.389Z,102229.22
2022-09-01T06:49:33.033Z,102239.00
2022-09-01T06:52:03.824Z,102235.09
2022-09-01T06:54:34.024Z,102254.03
2022-09-01T06:59:50.272Z,102252.97
2022-09-01T07:02:19.882Z,102240.25
2022-09-01T07:04:51.918Z,102251.84
2022-09-01T07:10:18.517Z,102234.78
2022-09-01T07:18:30.733Z,102253.09
2022-09-01T07:21:07.954Z,102239.75
2022-09-01T07:24:07.771Z,102261.16
2022-09-01T07:26:33.902Z,102268.91
2022-09-01T07:29:01.530Z,102246.47
2022-09-01T07:39:51.944Z,102254.66
2022-09-01T07:41:43.315Z,102248.59
2022-09-01T07:45:27.364Z,102239.81
2022-09-01T07:47:55.054Z,102262.91
2022-09-01T07:50:39.865Z,102242.25
2022-09-01T07:53:12.515Z,102256.47
2022-09-01T07:55:43.825Z,102266.56
2022-09-01T07:58:11.729Z,102224.59
2022-09-01T08:00:39.965Z,102269.69
2022-09-01T08:03:06.925Z,102280.06
2022-09-01T08:05:33.950Z,102256.03
2022-09-01T08:08:01.166Z,102258.44
2022-09-01T08:10:28.353Z,102273.50
2022-09-01T08:12:56.556Z,102270.31
2022-09-01T08:15:41.850Z,102282.34
2022-09-01T08:18:17.838Z,102277.06
2022-09-01T08:20:45.744Z,102273.38
2022-09-01T08:23:15.687Z,102255.91
2022-09-01T08:25:44.239Z,102246.94
2022-09-01T08:28:12.705Z,102280.47
2022-09-01T08:30:41.317Z,102277.75
2022-09-01T08:33:11.676Z,102254.91
2022-09-01T08:35:41.399Z,102277.56
2022-09-01T08:38:10.232Z,102254.16
2022-09-01T08:40:37.776Z,102263.09
2022-09-01T08:43:20.513Z,102249.34
2022-09-01T08:45:56.329Z,102261.84
2022-09-01T08:49:18.427Z,102287.22
2022-09-01T08:51:52.788Z,102244.03
2022-09-01T08:54:42.603Z,102282.38
2022-09-01T08:57:24.129Z,102272.34
2022-09-01T08:59:52.217Z,102275.34
2022-09-01T09:02:57.166Z,102279.66
2022-09-01T09:05:29.734Z,102274.00
2022-09-01T09:08:33.235Z,102275.25
2022-09-01T09:11:28.237Z,102282.09
2022-09-01T09:14:13.695Z,102273.59
2022-09-01T09:16:43.124Z,102268.00
2022-09-01T09:19:30.098Z,102260.75
2022-09-01T09:21:59.031Z,102257.38
2022-09-01T09:24:47.624Z,102253.25
2022-09-01T09:27:20.863Z,102256.41
2022-09-01T09:29:50.909Z,102262.53
2022-09-01T09:32:39.449Z,102262.16
2022-09-01T09:35:36.745Z,102262.72
2022-09-01T09:38:29.224Z,102257.38
2022-09-01T09:44:05.579Z,102253.66
2022-09-01T09:46:32.082Z,102249.84
2022-09-01T09:49:34.654Z,102254.63
2022-09-01T09:52:03.132Z,102254.63
2022-09-01T09:54:33.247Z,102247.38
2022-09-01T09:57:06.352Z,102255.22
2022-09-01T09:59:57.745Z,102245.50
2022-09-01T10:02:32.692Z,102238.22
2022-09-01T10:05:21.248Z,102231.41
2022-09-01T10:07:49.261Z,102200.75
2022-09-01T10:10:38.552Z,102193.91
2022-09-01T10:13:12.531Z,102223.81
2022-09-01T10:15:43.781Z,102230.94
2022-09-01T10:18:29.051Z,102194.09
2022-09-01T10:21:01.735Z,102216.16
2022-09-01T10:23:31.188Z,102201.13
2022-09-01T10:26:01.002Z,102223.19
2022-09-01T10:28:30.077Z,102214.72
2022-09-01T10:30:59.043Z,102223.19
2022-09-01T10:33:25.886Z,102208.66
2022-09-01T10:35:53.718Z,102211.81
2022-09-01T10:38:30.665Z,102176.00
2022-09-01T10:41:09.220Z,102219.09
2022-09-01T10:43:45.632Z,102214.56
2022-09-01T10:46:38.729Z,102223.75
2022-09-01T10:49:46.360Z,102218.94
2022-09-01T10:52:41.812Z,102213.47
2022-09-01T10:55:24.184Z,102211.09
2022-09-01T10:57:55.821Z,102213.50
2022-09-01T11:00:36.154Z,102209.28
2022-09-01T11:06:17.735Z,102200.56
2022-09-01T11:08:58.255Z,102200.09
2022-09-01T11:11:47.193Z,102200.19
2022-09-01T11:14:23.648Z,102198.84
2022-09-01T11:17:14.232Z,102204.09
2022-09-01T11:20:16.767Z,102197.44
2022-09-01T11:22:58.984Z,102165.19
2022-09-01T11:25:44.776Z,102197.78
2022-09-01T11:28:23.260Z,102187.53
2022-09-01T11:30:56.193Z,102184.53
2022-09-01T11:33:53.344Z,102193.06
2022-09-01T11:36:48.310Z,102191.75
2022-09-01T11:39:30.160Z,102190.13
2022-09-01T11:42:11.557Z,102191.06
2022-09-01T11:45:00.498Z,102166.41
2022-09-01T11:47:31.673Z,102184.13
2022-09-01T11:50:03.162Z,102173.66
2022-09-01T11:52:34.280Z,102171.44
2022-09-01T11:55:00.880Z,102169.53
2022-09-01T11:57:37.276Z,102177.97
2022-09-01T12:00:10.415Z,102175.09
2022-09-01T12:02:49.296Z,102137.13
2022-09-01T12:05:38.721Z,102145.53
2022-09-01T12:08:18.758Z,102167.03
2022-09-01T12:10:50.881Z,102158.28
2022-09-01T12:13:23.810Z,102166.28
2022-09-01T12:16:19.192Z,102163.34
2022-09-01T12:18:51.463Z,102161.91
2022-09-01T12:21:26.222Z,102170.59
2022-09-01T12:23:53.234Z,102162.09
2022-09-01T12:26:26.768Z,102163.94
2022-09-01T12:28:54.686Z,102157.31
2022-09-01T12:31:26.268Z,102142.63
2022-09-01T12:33:55.935Z,102129.56
2022-09-01T12:36:27.133Z,102149.03
2022-09-01T12:39:15.341Z,102147.91
2022-09-01T12:41:42.001Z,102148.94
2022-09-01T12:44:37.533Z,102142.34
2022-09-01T12:47:10.428Z,102143.13
2022-09-01T12:49:47.973Z,102128.41
2022-09-01T12:52:20.442Z,102141.63
2022-09-01T12:54:51.500Z,102142.31
2022-09-01T12:57:34.300Z,102150.72
2022-09-01T13:00:18.088Z,102136.25
2022-09-01T13:03:05.522Z,102132.06
2022-09-01T13:05:40.954Z,102136.13
2022-09-01T13:08:11.759Z,102126.06
2022-09-01T13:10:43.228Z,102128.84
2022-09-01T13:13:12.217Z,102129.41
2022-09-01T13:15:42.826Z,102137.09
2022-09-01T13:18:10.745Z,102127.66
2022-09-01T13:20:37.980Z,102110.97
2022-09-01T13:23:04.416Z,102123.94
2022-09-01T13:25:30.936Z,102121.84
2022-09-01T13:27:57.981Z,102120.72
2022-09-01T13:30:28.374Z,102119.06
2022-09-01T13:35:41.419Z,102095.41
2022-09-01T13:38:07.896Z,102112.53
2022-09-01T13:40:34.742Z,102105.84
2022-09-01T13:43:01.998Z,102102.03
2022-09-01T13:45:28.525Z,102110.16
2022-09-01T13:53:28.779Z,102105.38
2022-09-01T13:55:55.195Z,102094.28
2022-09-01T13:58:21.664Z,102106.34
2022-09-01T14:00:48.272Z,102112.19
2022-09-01T14:03:19.002Z,102089.06
2022-09-01T14:05:49.701Z,102100.88
2022-09-01T14:08:19.508Z,102110.50
2022-09-01T14:10:50.803Z,102084.66
2022-09-01T14:13:19.531Z,102088.56
2022-09-01T14:15:47.142Z,102092.09
2022-09-01T14:18:15.615Z,102092.91
2022-09-01T14:20:45.938Z,102091.38
2022-09-01T14:23:13.810Z,102086.00
2022-09-01T14:25:51.983Z,102079.25
2022-09-01T14:28:21.431Z,102084.09
2022-09-01T14:33:16.686Z,102076.16
2022-09-01T14:35:47.177Z,102070.38
2022-09-01T14:38:14.838Z,102044.28
2022-09-01T14:40:43.274Z,102065.06
2022-09-01T14:43:14.027Z,102062.47
2022-09-01T14:45:44.617Z,102064.00
2022-09-01T14:48:11.661Z,102053.69
2022-09-01T14:50:42.350Z,102020.88
2022-09-01T14:53:09.922Z,102048.69
2022-09-01T14:55:36.642Z,102055.38
2022-09-01T14:58:03.644Z,102058.63
2022-09-01T15:00:31.621Z,102030.28
2022-09-01T15:02:58.407Z,102042.94
2022-09-01T15:05:25.414Z,102029.28
2022-09-01T15:07:52.462Z,102040.69
2022-09-01T15:10:24.823Z,102046.66
2022-09-01T15:12:54.049Z,102033.91
2022-09-01T15:15:20.551Z,102044.00
2022-09-01T15:17:47.111Z,102022.19
2022-09-01T15:20:31.851Z,102020.75
2022-09-01T15:22:58.680Z,101998.09
2022-09-01T15:25:25.561Z,102003.19
2022-09-01T15:27:52.740Z,102028.69
2022-09-01T15:30:22.370Z,102011.75
2022-09-01T15:32:52.598Z,102011.31
2022-09-01T15:35:20.337Z,102017.06
2022-09-01T15:37:51.744Z,102009.91
2022-09-01T15:40:20.340Z,102011.38
2022-09-01T15:42:47.168Z,102021.44
2022-09-01T15:45:18.077Z,102017.78
2022-09-01T15:47:45.966Z,102010.38
2022-09-01T15:50:21.205Z,102014.91
2022-09-01T15:52:55.212Z,102016.28
2022-09-01T15:55:25.554Z,102017.50
2022-09-01T15:57:54.195Z,102010.69
2022-09-01T16:00:22.704Z,102005.81
2022-09-01T16:02:49.243Z,102013.25
2022-09-01T16:05:16.050Z,102017.47
2022-09-01T16:07:42.491Z,102004.84
2022-09-01T16:10:11.943Z,101975.78
2022-09-01T16:12:43.891Z,101992.50
2022-09-01T16:15:12.957Z,102004.06
2022-09-01T16:18:03.810Z,101994.75
2022-09-01T16:20:52.934Z,102012.88
2022-09-01T16:23:22.055Z,102003.50
2022-09-01T16:25:49.191Z,101990.47
2022-09-01T16:28:35.900Z,101997.22
2022-09-01T16:31:13.396Z,102009.41
2022-09-01T16:33:47.339Z,102001.78
2022-09-01T16:36:26.076Z,101997.94
2022-09-01T16:39:07.277Z,101992.03
2022-09-01T16:42:07.715Z,101998.72
2022-09-01T16:44:55.529Z,101991.72
2022-09-01T16:47:49.809Z,101998.22
2022-09-01T16:50:26.318Z,101988.97
2022-09-01T16:53:16.941Z,101995.50
2022-09-01T16:56:11.941Z,101999.09
2022-09-01T16:58:44.523Z,101997.66
2022-09-01T17:01:26.266Z,101992.41
2022-09-01T17:04:14.730Z,101997.03
2022-09-01T17:06:49.984Z,101993.50
2022-09-01T17:09:22.261Z,102001.34
2022-09-01T17:11:53.917Z,102006.25
2022-09-01T17:14:31.435Z,101981.47
2022-09-01T17:17:11.781Z,101996.84
2022-09-01T17:19:44.201Z,101994.56
2022-09-01T17:22:14.650Z,101998.66
2022-09-01T17:24:54.642Z,101987.44
2022-09-01T17:27:31.944Z,102011.13
2022-09-01T17:29:58.782Z,101994.84
2022-09-01T17:32:48.111Z,102006.19
2022-09-01T17:35:37.198Z,102017.31
2022-09-01T17:38:20.464Z,102014.53
2022-09-01T17:41:16.500Z,101993.69
2022-09-01T17:44:07.029Z,102019.34
2022-09-01T17:46:39.343Z,102028.78
2022-09-01T17:49:21.063Z,102019.97
2022-09-01T17:52:19.016Z,102012.47
2022-09-01T17:55:00.116Z,102022.97
2022-09-01T17:57:47.491Z,101995.19
2022-09-01T18:00:24.724Z,102025.91
2022-09-01T18:02:51.361Z,102026.44
2022-09-01T18:05:24.416Z,102021.31
2022-09-01T18:08:30.381Z,102031.19
2022-09-01T18:11:19.172Z,102028.94
2022-09-01T18:14:13.624Z,102028.19
2022-09-01T18:17:22.562Z,102029.13
2022-09-01T18:20:16.964Z,102029.91
2022-09-01T18:23:04.831Z,102031.84
2022-09-01T18:25:44.849Z,102034.44
2022-09-01T18:28:11.312Z,102040.75
2022-09-01T18:30:52.601Z,102006.09
2022-09-01T18:33:27.639Z,102035.72
2022-09-01T18:36:25.793Z,102033.13
2022-09-01T18:39:03.861Z,102033.16
2022-09-01T18:41:42.516Z,102035.19
2022-09-01T18:44:26.564Z,102033.84
2022-09-01T18:47:07.709Z,102033.81
2022-09-01T18:49:39.571Z,102015.69
2022-09-01T18:52:17.650Z,102036.00
2022-09-01T18:54:57.824Z,102044.91
2022-09-01T18:57:33.252Z,102047.06
2022-09-01T19:00:20.893Z,102049.25
2022-09-01T19:03:31.005Z,102048.22
2022-09-01T19:06:28.341Z,102046.84
2022-09-01T19:09:20.804Z,102040.00
2022-09-01T19:12:07.919Z,102052.81
2022-09-01T19:14:57.865Z,102045.16
2022-09-01T19:17:43.141Z,102054.25
2022-09-01T19:20:12.471Z,102055.38
2022-09-01T19:22:44.922Z,102060.41
2022-09-01T19:25:36.610Z,102053.25
2022-09-01T19:28:25.181Z,102052.88
2022-09-01T19:31:03.725Z,102049.38
2022-09-01T19:33:37.697Z,102059.13
2022-09-01T19:36:09.394Z,102059.75
2022-09-01T19:38:37.262Z,102053.63
2022-09-01T19:41:14.276Z,102055.78
2022-09-01T19:43:42.933Z,102050.16
2022-09-01T19:46:20.500Z,102042.94
2022-09-01T19:49:24.833Z,102053.09
2022-09-01T19:51:58.594Z,102052.31
2022-09-01T19:54:36.642Z,102054.81
2022-09-01T19:57:21.032Z,102055.41
2022-09-01T19:59:55.839Z,102056.84
2022-09-01T20:02:29.787Z,102020.53
2022-09-01T20:05:05.568Z,102041.50
2022-09-01T20:07:53.921Z,102053.28
2022-09-01T20:10:37.644Z,102054.03
2022-09-01T20:13:22.230Z,102054.63
2022-09-01T20:16:09.162Z,102032.34
2022-09-01T20:18:48.938Z,102043.13
2022-09-01T20:21:20.858Z,102041.16
2022-09-01T20:24:12.465Z,102047.69
2022-09-01T20:27:03.007Z,102048.47
2022-09-01T20:29:49.836Z,102055.28
2022-09-01T20:32:26.422Z,102025.91
2022-09-01T20:34:58.783Z,102044.97
2022-09-01T20:37:39.732Z,102048.97
2022-09-01T20:40:11.987Z,102049.72
2022-09-01T20:43:02.729Z,102046.59
2022-09-01T20:45:30.298Z,102044.78
2022-09-01T20:48:02.988Z,102052.00
2022-09-01T20:51:02.715Z,102047.47
2022-09-01T20:53:50.890Z,102050.88
2022-09-01T20:56:27.373Z,102046.34
2022-09-01T20:59:17.681Z,102056.13
2022-09-01T21:01:44.267Z,102048.66
2022-09-01T21:04:41.145Z,102052.28
2022-09-01T21:07:19.227Z,102052.03
2022-09-01T21:09:55.641Z,102040.72
2022-09-01T21:12:27.829Z,102055.56
2022-09-01T21:15:21.346Z,102051.50
2022-09-01T21:17:54.059Z,102052.91
2022-09-01T21:20:51.579Z,102054.16
2022-09-01T21:23:20.173Z,102053.59
2022-09-01T21:25:48.580Z,102045.69
2022-09-01T21:28:19.970Z,102038.63
2022-09-01T21:30:50.776Z,102054.75
2022-09-01T21:33:17.447Z,102027.69
2022-09-01T21:35:44.051Z,102051.88
2022-09-01T21:38:10.500Z,102024.44
2022-09-01T21:40:37.708Z,102049.34
2022-09-01T21:43:09.084Z,102047.91
2022-09-01T21:45:37.821Z,102027.53
2022-09-01T21:48:07.339Z,102041.69
2022-09-01T21:50:34.225Z,102043.66
2022-09-01T21:53:00.925Z,102051.97
2022-09-01T21:55:28.524Z,102050.56
2022-09-01T21:57:55.439Z,102055.22
2022-09-01T22:00:25.124Z,102048.28
2022-09-01T22:02:52.452Z,102044.28
2022-09-01T22:05:19.134Z,102046.25
2022-09-01T22:07:46.786Z,102007.72
2022-09-01T22:10:20.917Z,102050.06
2022-09-01T22:12:49.682Z,102052.31
2022-09-01T22:15:18.867Z,102048.06
2022-09-01T22:17:46.832Z,102031.06
2022-09-01T22:20:17.008Z,102049.03
2022-09-01T22:22:43.843Z,102044.63
2022-09-01T22:25:14.229Z,102044.91
2022-09-01T22:27:40.791Z,102052.84
2022-09-01T22:30:09.398Z,102040.78
2022-09-01T22:32:37.856Z,102056.31
2022-09-01T22:35:10.266Z,102038.31
2022-09-01T22:37:37.879Z,102054.88
2022-09-01T22:40:05.708Z,102049.06
2022-09-01T22:42:33.034Z,102035.88
2022-09-01T22:44:59.614Z,102046.59
2022-09-01T22:47:26.079Z,102031.44
2022-09-01T22:49:54.574Z,102051.25
2022-09-01T22:52:21.497Z,102042.31
2022-09-01T22:54:49.482Z,102030.81
2022-09-01T22:57:16.788Z,102026.81
2022-09-01T22:59:44.027Z,102035.72
2022-09-01T23:02:10.814Z,102034.72
2022-09-01T23:04:38.752Z,102046.75
2022-09-01T23:07:06.604Z,102046.06
2022-09-01T23:09:33.457Z,102041.78
2022-09-01T23:11:59.961Z,102037.06
2022-09-01T23:14:27.086Z,102041.47
2022-09-01T23:16:53.585Z,102019.50
2022-09-01T23:19:22.714Z,102030.28
2022-09-01T23:21:51.000Z,102034.09
2022-09-01T23:24:19.035Z,102016.22
2022-09-01T23:26:47.420Z,102027.66
2022-09-01T23:29:13.946Z,102029.22
2022-09-01T23:31:41.180Z,102036.69
2022-09-01T23:34:08.578Z,102027.91
2022-09-01T23:36:36.679Z,102016.16
2022-09-01T23:39:04.698Z,102025.66
2022-09-01T23:41:33.748Z,102021.41
2022-09-01T23:44:03.436Z,102005.59
2022-09-01T23:46:37.057Z,102019.81
2022-09-01T23:49:04.162Z,102003.03
2022-09-01T23:51:30.852Z,102005.94
2022-09-01T23:53:57.457Z,101998.19
2022-09-01T23:56:27.280Z,102012.41
2022-09-01T23:58:54.381Z,102003.28
